createdAt,value
2023-04-26T00:02:46.714Z,2.23
2023-04-26T00:05:48.987Z,2.18
2023-04-26T00:08:51.171Z,2.16
2023-04-26T00:11:54.303Z,2.18
2023-04-26T00:14:55.810Z,2.18
2023-04-26T00:17:57.368Z,2.18
2023-04-26T00:20:59.042Z,2.18
2023-04-26T00:24:00.652Z,2.16
2023-04-26T00:27:08.998Z,2.13
2023-04-26T00:30:11.342Z,2.12
2023-04-26T00:33:12.997Z,2.10
2023-04-26T00:36:15.474Z,2.10
2023-04-26T00:39:17.091Z,2.09
2023-04-26T00:42:20.062Z,2.07
2023-04-26T00:45:21.690Z,2.07
2023-04-26T00:48:23.601Z,2.03
2023-04-26T00:51:25.209Z,1.97
2023-04-26T00:54:26.746Z,1.93
2023-04-26T00:57:30.510Z,1.89
2023-04-26T01:00:32.458Z,1.87
2023-04-26T01:03:34.557Z,1.88
2023-04-26T01:06:38.441Z,1.87
2023-04-26T01:09:40.728Z,1.85
2023-04-26T01:12:43.755Z,1.83
2023-04-26T01:15:45.918Z,1.82
2023-04-26T01:18:51.093Z,1.79
2023-04-26T01:21:53.296Z,1.82
2023-04-26T01:24:58.079Z,1.81
2023-04-26T01:27:59.942Z,1.77
2023-04-26T01:31:01.659Z,1.73
2023-04-26T01:34:05.974Z,1.72
2023-04-26T01:37:07.733Z,1.72
2023-04-26T01:40:11.419Z,1.70
2023-04-26T01:43:13.056Z,1.68
2023-04-26T01:46:14.676Z,1.65
2023-04-26T01:49:16.513Z,1.65
2023-04-26T01:52:18.056Z,1.62
2023-04-26T01:55:22.304Z,1.64
2023-04-26T01:58:23.914Z,1.61
2023-04-26T02:01:25.687Z,1.59
2023-04-26T02:04:28.398Z,1.58
2023-04-26T02:07:29.948Z,1.56
2023-04-26T02:10:33.616Z,1.55
2023-04-26T02:13:35.406Z,1.57
2023-04-26T02:16:37.150Z,1.52
2023-04-26T02:19:38.762Z,1.50
2023-04-26T02:22:40.490Z,1.49
2023-04-26T02:25:45.655Z,1.44
2023-04-26T02:28:47.219Z,1.42
2023-04-26T02:31:48.871Z,1.39
2023-04-26T02:34:50.672Z,1.37
2023-04-26T02:37:52.454Z,1.36
2023-04-26T02:40:59.560Z,1.36
2023-04-26T02:44:01.375Z,1.31
2023-04-26T02:47:03.236Z,1.32
2023-04-26T02:50:05.454Z,1.30
2023-04-26T02:53:07.003Z,1.28
2023-04-26T02:56:10.328Z,1.27
2023-04-26T02:59:14.047Z,1.31
2023-04-26T03:02:15.618Z,1.27
2023-04-26T03:05:17.557Z,1.24
2023-04-26T03:08:19.074Z,1.24
2023-04-26T03:11:22.144Z,1.21
2023-04-26T03:14:23.797Z,1.18
2023-04-26T03:17:26.042Z,1.17
2023-04-26T03:20:27.946Z,1.14
2023-04-26T03:23:29.903Z,1.14
2023-04-26T03:26:33.131Z,1.10
2023-04-26T03:29:34.985Z,1.08
2023-04-26T03:32:36.632Z,1.08
2023-04-26T03:35:38.158Z,1.03
2023-04-26T03:38:40.044Z,1.03
2023-04-26T03:41:43.233Z,1.03
2023-04-26T03:44:47.695Z,1.04
2023-04-26T03:47:50.040Z,1.02
2023-04-26T03:50:51.877Z,0.99
2023-04-26T03:53:53.448Z,0.99
2023-04-26T03:56:56.403Z,0.95
2023-04-26T03:59:58.735Z,0.93
2023-04-26T04:03:01.004Z,0.91
2023-04-26T04:06:02.716Z,0.92
2023-04-26T04:09:05.713Z,0.91
2023-04-26T04:12:08.702Z,0.88
2023-04-26T04:15:10.486Z,0.83
2023-04-26T04:18:15.057Z,0.83
2023-04-26T04:21:16.702Z,0.83
2023-04-26T04:24:20.047Z,0.86
2023-04-26T04:27:23.123Z,0.90
2023-04-26T04:30:26.339Z,0.89
2023-04-26T04:33:28.663Z,0.88
2023-04-26T04:36:31.834Z,0.90
2023-04-26T04:39:33.515Z,0.89
2023-04-26T04:42:36.468Z,0.92
2023-04-26T04:45:40.845Z,0.90
2023-04-26T04:48:43.335Z,0.88
2023-04-26T04:51:45.627Z,0.91
2023-04-26T04:54:47.558Z,0.94
2023-04-26T04:57:51.704Z,0.96
2023-04-26T05:00:56.801Z,1.00
2023-04-26T05:04:01.985Z,1.01
2023-04-26T05:07:03.804Z,1.05
2023-04-26T05:10:06.063Z,1.11
2023-04-26T05:13:09.268Z,1.16
2023-04-26T05:16:11.553Z,1.22
2023-04-26T05:19:13.781Z,1.30
2023-04-26T05:22:21.166Z,1.32
2023-04-26T05:25:23.121Z,1.38
2023-04-26T05:28:33.252Z,1.48
2023-04-26T05:32:01.209Z,1.58
2023-04-26T05:35:29.070Z,1.66
2023-04-26T05:38:30.914Z,1.76
2023-04-26T05:41:32.754Z,1.83
2023-04-26T05:44:36.107Z,1.81
2023-04-26T05:47:37.901Z,1.77
2023-04-26T05:50:40.144Z,1.86
2023-04-26T05:53:41.945Z,1.96
2023-04-26T05:56:43.725Z,2.07
2023-04-26T05:59:47.103Z,2.02
2023-04-26T06:02:48.786Z,2.16
2023-04-26T06:05:52.528Z,2.34
2023-04-26T06:08:56.956Z,2.44
2023-04-26T06:11:59.441Z,2.37
2023-04-26T06:15:02.813Z,2.36
2023-04-26T06:18:07.024Z,2.38
2023-04-26T06:21:08.815Z,2.46
2023-04-26T06:24:11.625Z,2.50
2023-04-26T06:27:13.223Z,2.59
2023-04-26T06:30:20.383Z,2.59
2023-04-26T06:33:23.062Z,2.63
2023-04-26T06:36:24.634Z,2.51
2023-04-26T06:39:26.330Z,2.59
2023-04-26T06:42:28.162Z,2.58
2023-04-26T06:45:54.127Z,2.68
2023-04-26T06:48:56.384Z,2.67
2023-04-26T06:51:59.783Z,2.77
2023-04-26T06:55:01.503Z,3.03
2023-04-26T06:58:03.520Z,3.29
2023-04-26T07:01:08.511Z,3.38
2023-04-26T07:04:10.913Z,3.38
2023-04-26T07:07:13.784Z,3.45
2023-04-26T07:10:15.450Z,3.49
2023-04-26T07:13:17.045Z,3.60
2023-04-26T07:16:20.020Z,3.76
2023-04-26T07:19:21.572Z,3.91
2023-04-26T07:22:23.613Z,4.06
2023-04-26T07:25:25.550Z,4.19
2023-04-26T07:28:27.844Z,4.28
2023-04-26T07:31:32.299Z,4.13
2023-04-26T07:34:34.081Z,4.01
2023-04-26T07:37:35.626Z,4.00
2023-04-26T07:40:37.226Z,4.04
2023-04-26T07:43:39.252Z,4.20
2023-04-26T07:46:42.387Z,4.31
2023-04-26T07:49:45.744Z,4.42
2023-04-26T07:52:48.753Z,4.55
2023-04-26T07:55:51.434Z,4.67
2023-04-26T07:58:53.764Z,4.85
2023-04-26T08:01:57.339Z,5.07
2023-04-26T08:04:59.076Z,4.99
2023-04-26T08:08:01.966Z,4.99
2023-04-26T08:11:07.179Z,5.09
2023-04-26T08:14:08.686Z,5.26
2023-04-26T08:17:12.181Z,5.04
2023-04-26T08:20:14.631Z,5.14
2023-04-26T08:23:16.180Z,5.29
2023-04-26T08:26:18.063Z,5.33
2023-04-26T08:29:20.350Z,5.09
2023-04-26T08:32:23.295Z,4.94
2023-04-26T08:35:24.800Z,4.84
2023-04-26T08:38:26.711Z,5.18
2023-04-26T08:41:28.787Z,5.31
2023-04-26T08:44:34.048Z,5.44
2023-04-26T08:47:40.063Z,5.77
2023-04-26T08:50:43.151Z,5.60
2023-04-26T08:53:45.595Z,5.30
2023-04-26T08:56:47.167Z,5.14
2023-04-26T08:59:50.139Z,5.06
2023-04-26T09:02:53.989Z,5.09
2023-04-26T09:05:55.895Z,5.07
2023-04-26T09:08:58.097Z,5.02
2023-04-26T09:12:00.444Z,5.07
2023-04-26T09:15:02.257Z,5.23
2023-04-26T09:18:20.695Z,5.66
2023-04-26T09:21:23.134Z,5.70
2023-04-26T09:24:24.873Z,5.68
2023-04-26T09:27:34.281Z,5.52
2023-04-26T09:30:39.326Z,5.44
2023-04-26T09:33:55.679Z,5.37
2023-04-26T09:36:58.611Z,5.29
2023-04-26T09:40:00.448Z,5.29
2023-04-26T09:43:03.133Z,5.38
2023-04-26T09:46:04.932Z,5.51
2023-04-26T09:49:06.632Z,5.56
2023-04-26T09:52:09.694Z,5.68
2023-04-26T09:55:19.044Z,5.75
2023-04-26T09:58:32.990Z,5.84
2023-04-26T10:01:35.060Z,6.35
2023-04-26T10:04:37.192Z,6.30
2023-04-26T10:07:41.584Z,6.09
2023-04-26T10:10:43.946Z,6.01
2023-04-26T10:13:45.674Z,5.96
2023-04-26T10:16:48.110Z,5.78
2023-04-26T10:19:53.537Z,5.70
2023-04-26T10:23:01.878Z,5.64
2023-04-26T10:26:03.525Z,5.65
2023-04-26T10:29:05.348Z,5.76
2023-04-26T10:32:17.863Z,6.09
2023-04-26T10:35:20.086Z,6.21
2023-04-26T10:38:23.048Z,6.09
2023-04-26T10:41:29.634Z,6.19
2023-04-26T10:44:38.999Z,6.34
2023-04-26T10:47:40.972Z,6.67
2023-04-26T10:50:57.885Z,6.81
2023-04-26T10:54:05.101Z,6.68
2023-04-26T10:57:07.473Z,6.55
2023-04-26T11:00:17.166Z,6.66
2023-04-26T11:03:19.203Z,6.64
2023-04-26T11:06:23.270Z,6.86
2023-04-26T11:09:37.725Z,6.93
2023-04-26T11:12:41.698Z,6.77
2023-04-26T11:15:43.319Z,6.82
2023-04-26T11:18:46.077Z,6.96
2023-04-26T11:21:47.657Z,6.93
2023-04-26T11:24:52.517Z,6.88
2023-04-26T11:27:57.704Z,6.91
2023-04-26T11:30:59.632Z,6.61
2023-04-26T11:34:03.722Z,6.68
2023-04-26T11:37:05.994Z,6.68
2023-04-26T11:40:14.117Z,6.55
2023-04-26T11:43:16.231Z,6.45
2023-04-26T11:46:21.945Z,6.26
2023-04-26T11:49:24.115Z,6.10
2023-04-26T11:52:26.528Z,6.03
2023-04-26T11:55:32.091Z,5.96
2023-04-26T11:58:33.708Z,6.10
2023-04-26T12:01:35.230Z,6.27
2023-04-26T12:04:38.009Z,6.34
2023-04-26T12:07:39.754Z,6.53
2023-04-26T12:10:43.118Z,6.62
2023-04-26T12:13:45.538Z,6.66
2023-04-26T12:16:47.457Z,6.79
2023-04-26T12:19:49.901Z,6.86
2023-04-26T12:23:02.141Z,6.82
2023-04-26T12:26:05.610Z,6.82
2023-04-26T12:29:07.113Z,6.80
2023-04-26T12:32:08.900Z,6.94
2023-04-26T12:35:10.482Z,6.98
2023-04-26T12:38:12.589Z,7.19
2023-04-26T12:41:16.269Z,7.13
2023-04-26T12:44:20.437Z,7.07
2023-04-26T12:47:23.695Z,6.96
2023-04-26T12:50:25.446Z,6.89
2023-04-26T12:53:27.019Z,6.87
2023-04-26T12:56:30.548Z,6.92
2023-04-26T12:59:32.110Z,6.86
2023-04-26T13:02:34.384Z,6.82
2023-04-26T13:05:36.473Z,6.92
2023-04-26T13:08:38.112Z,6.92
2023-04-26T13:11:41.140Z,7.10
2023-04-26T13:14:43.363Z,6.96
2023-04-26T13:17:45.650Z,6.93
2023-04-26T13:20:48.031Z,7.06
2023-04-26T13:23:49.736Z,6.96
2023-04-26T13:26:53.236Z,6.99
2023-04-26T13:29:54.829Z,6.93
2023-04-26T13:32:58.212Z,6.89
2023-04-26T13:36:01.694Z,6.82
2023-04-26T13:39:04.978Z,6.79
2023-04-26T13:42:08.596Z,6.77
2023-04-26T13:45:11.129Z,6.76
2023-04-26T13:48:13.104Z,6.69
2023-04-26T13:51:15.353Z,6.68
2023-04-26T13:54:17.399Z,6.57
2023-04-26T13:57:20.700Z,6.49
2023-04-26T14:00:23.059Z,6.52
2023-04-26T14:03:24.760Z,6.48
2023-04-26T14:06:27.095Z,6.53
2023-04-26T14:09:28.619Z,6.56
2023-04-26T14:12:31.706Z,6.74
2023-04-26T14:15:33.632Z,6.87
2023-04-26T14:18:35.298Z,7.07
2023-04-26T14:21:36.858Z,7.34
2023-04-26T14:24:38.443Z,7.30
2023-04-26T14:27:41.585Z,7.35
2023-04-26T14:30:43.321Z,7.35
2023-04-26T14:33:44.920Z,7.35
2023-04-26T14:36:46.508Z,7.14
2023-04-26T14:39:48.281Z,7.29
2023-04-26T14:42:51.728Z,7.22
2023-04-26T14:45:53.384Z,7.40
2023-04-26T14:48:55.376Z,7.69
2023-04-26T14:51:57.044Z,7.76
2023-04-26T14:54:58.672Z,7.68
2023-04-26T14:58:01.911Z,7.55
2023-04-26T15:01:04.279Z,7.30
2023-04-26T15:04:06.269Z,7.52
2023-04-26T15:07:13.043Z,7.90
2023-04-26T15:10:22.530Z,8.56
2023-04-26T15:13:25.884Z,8.96
2023-04-26T15:16:28.732Z,9.13
2023-04-26T15:19:30.461Z,8.77
2023-04-26T15:22:32.868Z,8.11
2023-04-26T15:25:35.051Z,7.85
2023-04-26T15:28:37.994Z,7.81
2023-04-26T15:31:39.573Z,7.63
2023-04-26T15:34:43.420Z,7.53
2023-04-26T15:37:45.464Z,7.67
2023-04-26T15:40:47.168Z,8.39
2023-04-26T15:43:52.957Z,8.99
2023-04-26T15:46:54.546Z,9.10
2023-04-26T15:50:00.649Z,8.93
2023-04-26T15:53:02.690Z,8.84
2023-04-26T15:56:13.247Z,8.61
2023-04-26T15:59:16.338Z,8.75
2023-04-26T16:02:17.983Z,8.96
2023-04-26T16:05:20.175Z,8.94
2023-04-26T16:08:39.445Z,8.91
2023-04-26T16:11:42.401Z,8.85
2023-04-26T16:14:45.306Z,8.79
2023-04-26T16:17:47.135Z,8.73
2023-04-26T16:20:48.748Z,8.83
2023-04-26T16:23:51.598Z,8.55
2023-04-26T16:26:53.113Z,7.89
2023-04-26T16:29:56.931Z,7.39
2023-04-26T16:32:58.695Z,7.19
2023-04-26T16:36:00.787Z,7.04
2023-04-26T16:39:02.649Z,6.94
2023-04-26T16:42:04.352Z,6.90
2023-04-26T16:45:08.071Z,6.88
2023-04-26T16:48:09.675Z,6.90
2023-04-26T16:51:11.296Z,6.86
2023-04-26T16:54:13.338Z,6.85
2023-04-26T16:57:14.890Z,6.88
2023-04-26T17:00:18.259Z,6.85
2023-04-26T17:03:20.629Z,6.90
2023-04-26T17:06:22.716Z,6.90
2023-04-26T17:09:24.333Z,6.83
2023-04-26T17:12:26.288Z,6.85
2023-04-26T17:15:30.360Z,6.93
2023-04-26T17:18:32.654Z,6.98
2023-04-26T17:21:34.325Z,7.09
2023-04-26T17:24:35.846Z,7.10
2023-04-26T17:27:37.753Z,7.02
2023-04-26T17:30:41.142Z,7.05
2023-04-26T17:33:43.391Z,7.00
2023-04-26T17:36:47.835Z,6.90
2023-04-26T17:39:49.593Z,6.78
2023-04-26T17:42:51.571Z,6.73
2023-04-26T17:45:54.656Z,6.67
2023-04-26T17:48:56.331Z,6.65
2023-04-26T17:51:58.164Z,6.62
2023-04-26T17:54:59.788Z,6.61
2023-04-26T17:58:01.531Z,6.61
2023-04-26T18:01:05.038Z,6.56
2023-04-26T18:04:07.253Z,6.54
2023-04-26T18:07:09.086Z,6.53
2023-04-26T18:10:11.199Z,6.52
2023-04-26T18:13:13.239Z,6.56
2023-04-26T18:16:17.655Z,6.52
2023-04-26T18:19:19.284Z,6.54
2023-04-26T18:22:20.934Z,6.51
2023-04-26T18:25:22.566Z,6.50
2023-04-26T18:28:24.174Z,6.53
2023-04-26T18:31:28.094Z,6.51
2023-04-26T18:34:29.719Z,6.50
2023-04-26T18:37:31.593Z,6.45
2023-04-26T18:40:33.254Z,6.35
2023-04-26T18:43:34.879Z,6.33
2023-04-26T18:46:37.925Z,6.29
2023-04-26T18:49:39.602Z,6.21
2023-04-26T18:52:41.420Z,6.16
2023-04-26T18:55:43.214Z,6.08
2023-04-26T18:58:44.838Z,6.03
2023-04-26T19:01:49.236Z,5.98
2023-04-26T19:04:51.030Z,5.96
2023-04-26T19:07:53.535Z,5.96
2023-04-26T19:10:55.299Z,5.95
2023-04-26T19:13:57.529Z,5.94
2023-04-26T19:17:00.635Z,5.93
2023-04-26T19:20:02.672Z,5.91
2023-04-26T19:23:04.182Z,5.88
2023-04-26T19:26:06.848Z,5.90
2023-04-26T19:29:10.060Z,5.86
2023-04-26T19:32:14.670Z,5.84
2023-04-26T19:35:16.573Z,5.86
2023-04-26T19:38:18.110Z,5.84
2023-04-26T19:41:19.787Z,5.82
2023-04-26T19:44:21.781Z,5.83
2023-04-26T19:47:24.721Z,5.85
2023-04-26T19:50:26.295Z,5.79
2023-04-26T19:53:28.054Z,5.76
2023-04-26T19:56:29.722Z,5.72
2023-04-26T19:59:31.289Z,5.72
2023-04-26T20:02:34.679Z,5.69
2023-04-26T20:05:36.521Z,5.71
2023-04-26T20:08:38.231Z,5.74
2023-04-26T20:11:39.826Z,5.66
2023-04-26T20:14:41.652Z,5.63
2023-04-26T20:17:44.538Z,5.58
2023-04-26T20:20:47.784Z,5.51
2023-04-26T20:23:52.391Z,5.47
2023-04-26T20:26:54.637Z,5.44
2023-04-26T20:29:56.581Z,5.43
2023-04-26T20:32:59.728Z,5.41
2023-04-26T20:36:01.530Z,5.43
2023-04-26T20:39:03.091Z,5.44
2023-04-26T20:42:04.987Z,5.49
2023-04-26T20:45:07.041Z,5.50
2023-04-26T20:48:10.050Z,5.42
2023-04-26T20:51:12.276Z,5.38
2023-04-26T20:54:13.946Z,5.39
2023-04-26T20:57:16.264Z,5.41
2023-04-26T21:00:18.236Z,5.46
2023-04-26T21:03:21.594Z,5.44
2023-04-26T21:06:23.226Z,5.46
2023-04-26T21:09:24.788Z,5.50
2023-04-26T21:12:26.437Z,5.47
2023-04-26T21:15:28.039Z,5.38
2023-04-26T21:18:31.251Z,5.41
2023-04-26T21:21:32.878Z,5.43
2023-04-26T21:24:35.266Z,5.44
2023-04-26T21:27:37.112Z,5.44
2023-04-26T21:30:38.934Z,5.40
2023-04-26T21:33:42.360Z,5.35
2023-04-26T21:36:43.968Z,5.36
2023-04-26T21:39:45.680Z,5.28
2023-04-26T21:42:57.973Z,5.31
2023-04-26T21:46:08.094Z,5.31
2023-04-26T21:49:12.003Z,5.27
2023-04-26T21:52:14.165Z,5.29
2023-04-26T21:55:16.116Z,5.23
2023-04-26T21:58:18.019Z,5.20
2023-04-26T22:01:19.794Z,5.19
2023-04-26T22:04:22.914Z,5.06
2023-04-26T22:07:24.836Z,4.95
2023-04-26T22:10:26.985Z,4.88
2023-04-26T22:13:28.922Z,4.85
2023-04-26T22:16:30.457Z,4.76
2023-04-26T22:19:33.639Z,4.58
2023-04-26T22:22:35.257Z,4.47
2023-04-26T22:25:36.941Z,4.37
2023-04-26T22:28:48.752Z,4.25
2023-04-26T22:31:51.645Z,4.21
2023-04-26T22:34:54.639Z,4.12
2023-04-26T22:37:56.545Z,4.05
2023-04-26T22:40:58.601Z,3.97
2023-04-26T22:44:00.173Z,3.91
2023-04-26T22:47:01.696Z,3.87
2023-04-26T22:50:05.478Z,3.85
2023-04-26T22:53:07.132Z,3.95
2023-04-26T22:56:08.912Z,3.94
2023-04-26T22:59:11.736Z,3.98
2023-04-26T23:02:15.767Z,3.89
2023-04-26T23:05:18.844Z,3.80
2023-04-26T23:08:20.552Z,3.79
2023-04-26T23:11:22.193Z,3.88
2023-04-26T23:14:23.748Z,3.78
2023-04-26T23:17:26.741Z,3.87
2023-04-26T23:20:30.084Z,3.99
2023-04-26T23:23:31.785Z,4.04
2023-04-26T23:26:33.278Z,4.06
2023-04-26T23:29:34.979Z,4.07
2023-04-26T23:32:36.847Z,4.11
2023-04-26T23:35:42.108Z,4.09
2023-04-26T23:38:43.685Z,4.05
2023-04-26T23:41:45.285Z,4.04
2023-04-26T23:44:46.912Z,4.02
2023-04-26T23:47:48.826Z,3.99
2023-04-26T23:50:51.912Z,3.99
2023-04-26T23:53:53.539Z,3.96
2023-04-26T23:56:55.117Z,3.96
2023-04-26T23:59:56.700Z,3.94
